sensor_id;sensor_type;location;lat;lon;timestamp;P1;durP1;ratioP1;P2;durP2;ratioP2
13872;SDS011;7006;51.494;11.964;2023-01-28T00:00:36;7.57;;;4.50;;
13872;SDS011;7006;51.494;11.964;2023-01-28T00:03:06;7.17;;;3.83;;
13872;SDS011;7006;51.494;11.964;2023-01-28T00:05:37;8.60;;;4.33;;
13872;SDS011;7006;51.494;11.964;2023-01-28T00:08:06;6.30;;;4.10;;
13872;SDS011;7006;51.494;11.964;2023-01-28T00:10:35;7.57;;;3.60;;
13872;SDS011;7006;51.494;11.964;2023-01-28T00:13:03;6.80;;;4.27;;
13872;SDS011;7006;51.494;11.964;2023-01-28T00:15:34;7.70;;;3.57;;
13872;SDS011;7006;51.494;11.964;2023-01-28T00:18:02;5.93;;;3.47;;
13872;SDS011;7006;51.494;11.964;2023-01-28T00:20:31;6.20;;;3.77;;
13872;SDS011;7006;51.494;11.964;2023-01-28T00:22:59;8.27;;;3.83;;
13872;SDS011;7006;51.494;11.964;2023-01-28T00:25:31;6.90;;;3.53;;
13872;SDS011;7006;51.494;11.964;2023-01-28T00:27:59;5.90;;;4.03;;
13872;SDS011;7006;51.494;11.964;2023-01-28T00:30:27;8.20;;;3.50;;
13872;SDS011;7006;51.494;11.964;2023-01-28T00:33:01;10.10;;;3.07;;
13872;SDS011;7006;51.494;11.964;2023-01-28T00:35:30;9.23;;;3.80;;
13872;SDS011;7006;51.494;11.964;2023-01-28T00:37:59;10.10;;;3.63;;
13872;SDS011;7006;51.494;11.964;2023-01-28T00:40:28;5.17;;;3.30;;
13872;SDS011;7006;51.494;11.964;2023-01-28T00:42:59;7.83;;;2.80;;
13872;SDS011;7006;51.494;11.964;2023-01-28T00:45:29;6.93;;;3.30;;
13872;SDS011;7006;51.494;11.964;2023-01-28T00:48:03;11.20;;;3.37;;
13872;SDS011;7006;51.494;11.964;2023-01-28T00:50:33;6.80;;;3.03;;
13872;SDS011;7006;51.494;11.964;2023-01-28T00:53:03;5.13;;;3.10;;
13872;SDS011;7006;51.494;11.964;2023-01-28T00:55:31;5.07;;;3.00;;
13872;SDS011;7006;51.494;11.964;2023-01-28T00:58:00;5.87;;;3.13;;
13872;SDS011;7006;51.494;11.964;2023-01-28T01:00:29;5.43;;;2.80;;
13872;SDS011;7006;51.494;11.964;2023-01-28T01:03:03;6.47;;;3.03;;
13872;SDS011;7006;51.494;11.964;2023-01-28T01:05:32;4.23;;;3.03;;
13872;SDS011;7006;51.494;11.964;2023-01-28T01:08:00;6.93;;;3.97;;
13872;SDS011;7006;51.494;11.964;2023-01-28T01:10:29;9.30;;;3.43;;
13872;SDS011;7006;51.494;11.964;2023-01-28T01:12:58;6.47;;;4.00;;
13872;SDS011;7006;51.494;11.964;2023-01-28T01:15:29;4.13;;;3.20;;
13872;SDS011;7006;51.494;11.964;2023-01-28T01:17:59;4.97;;;3.30;;
13872;SDS011;7006;51.494;11.964;2023-01-28T01:20:32;6.53;;;3.50;;
13872;SDS011;7006;51.494;11.964;2023-01-28T01:23:04;8.03;;;3.57;;
13872;SDS011;7006;51.494;11.964;2023-01-28T01:25:34;5.70;;;3.17;;
13872;SDS011;7006;51.494;11.964;2023-01-28T01:28:05;5.43;;;3.40;;
13872;SDS011;7006;51.494;11.964;2023-01-28T01:30:35;5.43;;;3.50;;
13872;SDS011;7006;51.494;11.964;2023-01-28T01:33:07;5.80;;;3.50;;
13872;SDS011;7006;51.494;11.964;2023-01-28T01:35:40;6.00;;;3.97;;
13872;SDS011;7006;51.494;11.964;2023-01-28T01:38:11;6.73;;;4.07;;
13872;SDS011;7006;51.494;11.964;2023-01-28T01:40:39;6.50;;;3.77;;
13872;SDS011;7006;51.494;11.964;2023-01-28T01:43:14;6.50;;;3.50;;
13872;SDS011;7006;51.494;11.964;2023-01-28T01:45:46;6.57;;;3.50;;
13872;SDS011;7006;51.494;11.964;2023-01-28T01:48:16;7.10;;;3.73;;
13872;SDS011;7006;51.494;11.964;2023-01-28T01:50:51;8.37;;;3.80;;
13872;SDS011;7006;51.494;11.964;2023-01-28T01:53:23;6.00;;;3.50;;
13872;SDS011;7006;51.494;11.964;2023-01-28T01:55:54;6.03;;;3.47;;
13872;SDS011;7006;51.494;11.964;2023-01-28T01:58:25;3.83;;;2.80;;
13872;SDS011;7006;51.494;11.964;2023-01-28T02:00:55;6.50;;;3.30;;
13872;SDS011;7006;51.494;11.964;2023-01-28T02:03:25;6.37;;;3.47;;
13872;SDS011;7006;51.494;11.964;2023-01-28T02:05:58;5.80;;;3.20;;
13872;SDS011;7006;51.494;11.964;2023-01-28T02:08:26;6.50;;;3.20;;
13872;SDS011;7006;51.494;11.964;2023-01-28T02:10:55;6.13;;;3.07;;
13872;SDS011;7006;51.494;11.964;2023-01-28T02:13:26;5.83;;;3.43;;
13872;SDS011;7006;51.494;11.964;2023-01-28T02:15:55;7.03;;;3.10;;
13872;SDS011;7006;51.494;11.964;2023-01-28T02:18:25;3.87;;;2.90;;
13872;SDS011;7006;51.494;11.964;2023-01-28T02:21:01;5.70;;;3.47;;
13872;SDS011;7006;51.494;11.964;2023-01-28T02:23:35;5.43;;;3.23;;
13872;SDS011;7006;51.494;11.964;2023-01-28T02:28:54;8.10;;;2.97;;
13872;SDS011;7006;51.494;11.964;2023-01-28T02:31:26;5.70;;;3.20;;
13872;SDS011;7006;51.494;11.964;2023-01-28T02:33:58;5.90;;;2.73;;
13872;SDS011;7006;51.494;11.964;2023-01-28T02:36:28;7.23;;;3.00;;
13872;SDS011;7006;51.494;11.964;2023-01-28T02:39:00;6.67;;;3.30;;
13872;SDS011;7006;51.494;11.964;2023-01-28T02:41:31;4.17;;;2.50;;
13872;SDS011;7006;51.494;11.964;2023-01-28T02:44:03;5.10;;;2.77;;
13872;SDS011;7006;51.494;11.964;2023-01-28T02:46:33;6.03;;;2.77;;
13872;SDS011;7006;51.494;11.964;2023-01-28T02:49:15;4.87;;;2.80;;
13872;SDS011;7006;51.494;11.964;2023-01-28T02:51:49;8.30;;;3.00;;
13872;SDS011;7006;51.494;11.964;2023-01-28T02:54:21;5.80;;;2.60;;
13872;SDS011;7006;51.494;11.964;2023-01-28T02:56:51;5.10;;;2.60;;
13872;SDS011;7006;51.494;11.964;2023-01-28T02:59:25;4.60;;;2.67;;
13872;SDS011;7006;51.494;11.964;2023-01-28T03:02:00;6.30;;;2.57;;
13872;SDS011;7006;51.494;11.964;2023-01-28T03:04:32;6.33;;;2.53;;
13872;SDS011;7006;51.494;11.964;2023-01-28T03:07:02;5.20;;;2.43;;
13872;SDS011;7006;51.494;11.964;2023-01-28T03:09:32;6.00;;;2.00;;
13872;SDS011;7006;51.494;11.964;2023-01-28T03:11:59;7.77;;;3.07;;
13872;SDS011;7006;51.494;11.964;2023-01-28T03:14:44;4.80;;;2.80;;
13872;SDS011;7006;51.494;11.964;2023-01-28T03:17:27;4.47;;;2.70;;
13872;SDS011;7006;51.494;11.964;2023-01-28T03:20:10;8.50;;;2.93;;
13872;SDS011;7006;51.494;11.964;2023-01-28T03:22:52;3.73;;;2.40;;
13872;SDS011;7006;51.494;11.964;2023-01-28T03:25:34;5.47;;;2.53;;
13872;SDS011;7006;51.494;11.964;2023-01-28T03:28:15;4.73;;;2.23;;
13872;SDS011;7006;51.494;11.964;2023-01-28T03:31:02;5.83;;;2.83;;
13872;SDS011;7006;51.494;11.964;2023-01-28T03:33:44;5.33;;;2.90;;
13872;SDS011;7006;51.494;11.964;2023-01-28T03:36:24;6.10;;;2.30;;
13872;SDS011;7006;51.494;11.964;2023-01-28T03:39:05;8.03;;;3.17;;
13872;SDS011;7006;51.494;11.964;2023-01-28T03:41:33;5.50;;;2.70;;
13872;SDS011;7006;51.494;11.964;2023-01-28T03:44:01;5.37;;;2.87;;
13872;SDS011;7006;51.494;11.964;2023-01-28T03:46:44;7.47;;;3.47;;
13872;SDS011;7006;51.494;11.964;2023-01-28T03:49:13;4.50;;;2.60;;
13872;SDS011;7006;51.494;11.964;2023-01-28T03:51:41;6.30;;;3.43;;
13872;SDS011;7006;51.494;11.964;2023-01-28T03:54:10;7.07;;;3.27;;
13872;SDS011;7006;51.494;11.964;2023-01-28T03:56:38;6.70;;;3.17;;
13872;SDS011;7006;51.494;11.964;2023-01-28T03:59:07;9.30;;;3.50;;
13872;SDS011;7006;51.494;11.964;2023-01-28T04:01:35;6.50;;;3.40;;
13872;SDS011;7006;51.494;11.964;2023-01-28T04:04:06;8.20;;;2.83;;
13872;SDS011;7006;51.494;11.964;2023-01-28T04:06:46;8.43;;;3.57;;
13872;SDS011;7006;51.494;11.964;2023-01-28T04:09:15;9.87;;;3.30;;
13872;SDS011;7006;51.494;11.964;2023-01-28T04:11:43;4.33;;;3.00;;
13872;SDS011;7006;51.494;11.964;2023-01-28T04:14:11;4.27;;;2.90;;
13872;SDS011;7006;51.494;11.964;2023-01-28T04:16:40;5.93;;;3.07;;
13872;SDS011;7006;51.494;11.964;2023-01-28T04:19:11;4.20;;;3.10;;
13872;SDS011;7006;51.494;11.964;2023-01-28T04:21:40;5.43;;;2.97;;
13872;SDS011;7006;51.494;11.964;2023-01-28T04:24:08;5.23;;;3.37;;
13872;SDS011;7006;51.494;11.964;2023-01-28T04:26:36;6.23;;;2.80;;
13872;SDS011;7006;51.494;11.964;2023-01-28T04:29:05;6.07;;;2.80;;
13872;SDS011;7006;51.494;11.964;2023-01-28T04:31:33;4.50;;;2.70;;
13872;SDS011;7006;51.494;11.964;2023-01-28T04:34:01;5.77;;;3.60;;
13872;SDS011;7006;51.494;11.964;2023-01-28T04:36:32;5.67;;;3.10;;
13872;SDS011;7006;51.494;11.964;2023-01-28T04:39:01;6.40;;;3.20;;
13872;SDS011;7006;51.494;11.964;2023-01-28T04:41:29;4.53;;;2.93;;
13872;SDS011;7006;51.494;11.964;2023-01-28T04:43:57;8.13;;;3.20;;
13872;SDS011;7006;51.494;11.964;2023-01-28T04:46:25;6.30;;;3.47;;
13872;SDS011;7006;51.494;11.964;2023-01-28T04:48:53;6.30;;;3.40;;
13872;SDS011;7006;51.494;11.964;2023-01-28T04:51:22;6.33;;;3.40;;
13872;SDS011;7006;51.494;11.964;2023-01-28T04:53:52;8.80;;;3.40;;
13872;SDS011;7006;51.494;11.964;2023-01-28T04:56:20;4.70;;;3.17;;
13872;SDS011;7006;51.494;11.964;2023-01-28T04:58:49;6.80;;;3.23;;
13872;SDS011;7006;51.494;11.964;2023-01-28T05:01:17;7.80;;;3.07;;
13872;SDS011;7006;51.494;11.964;2023-01-28T05:03:45;4.93;;;3.40;;
13872;SDS011;7006;51.494;11.964;2023-01-28T05:06:13;5.70;;;3.90;;
13872;SDS011;7006;51.494;11.964;2023-01-28T05:08:41;4.50;;;2.97;;
13872;SDS011;7006;51.494;11.964;2023-01-28T05:11:13;5.67;;;3.10;;
13872;SDS011;7006;51.494;11.964;2023-01-28T05:13:41;6.13;;;3.40;;
13872;SDS011;7006;51.494;11.964;2023-01-28T05:16:09;6.47;;;2.70;;
13872;SDS011;7006;51.494;11.964;2023-01-28T05:18:37;7.70;;;2.90;;
13872;SDS011;7006;51.494;11.964;2023-01-28T05:21:06;6.43;;;2.97;;
13872;SDS011;7006;51.494;11.964;2023-01-28T05:23:34;9.80;;;3.10;;
13872;SDS011;7006;51.494;11.964;2023-01-28T05:26:02;10.20;;;3.67;;
13872;SDS011;7006;51.494;11.964;2023-01-28T05:28:33;5.80;;;3.20;;
13872;SDS011;7006;51.494;11.964;2023-01-28T05:31:02;4.80;;;2.70;;
13872;SDS011;7006;51.494;11.964;2023-01-28T05:33:30;7.20;;;3.50;;
13872;SDS011;7006;51.494;11.964;2023-01-28T05:35:58;6.53;;;3.70;;
13872;SDS011;7006;51.494;11.964;2023-01-28T05:38:26;4.80;;;3.37;;
13872;SDS011;7006;51.494;11.964;2023-01-28T05:40:54;9.70;;;3.20;;
13872;SDS011;7006;51.494;11.964;2023-01-28T05:43:23;6.53;;;3.03;;
13872;SDS011;7006;51.494;11.964;2023-01-28T05:45:54;5.77;;;3.63;;
13872;SDS011;7006;51.494;11.964;2023-01-28T05:48:22;5.20;;;3.40;;
13872;SDS011;7006;51.494;11.964;2023-01-28T05:50:50;8.50;;;4.17;;
13872;SDS011;7006;51.494;11.964;2023-01-28T05:53:18;4.43;;;3.00;;
13872;SDS011;7006;51.494;11.964;2023-01-28T05:55:47;5.57;;;2.60;;
13872;SDS011;7006;51.494;11.964;2023-01-28T05:58:15;7.63;;;3.60;;
13872;SDS011;7006;51.494;11.964;2023-01-28T06:00:43;7.37;;;4.03;;
13872;SDS011;7006;51.494;11.964;2023-01-28T06:03:14;6.80;;;3.07;;
13872;SDS011;7006;51.494;11.964;2023-01-28T06:05:42;8.30;;;3.57;;
13872;SDS011;7006;51.494;11.964;2023-01-28T06:08:10;6.03;;;3.37;;
13872;SDS011;7006;51.494;11.964;2023-01-28T06:10:39;6.93;;;3.50;;
13872;SDS011;7006;51.494;11.964;2023-01-28T06:13:07;5.07;;;3.10;;
13872;SDS011;7006;51.494;11.964;2023-01-28T06:15:35;5.77;;;3.30;;
13872;SDS011;7006;51.494;11.964;2023-01-28T06:18:03;10.77;;;3.47;;
13872;SDS011;7006;51.494;11.964;2023-01-28T06:20:34;7.70;;;4.30;;
13872;SDS011;7006;51.494;11.964;2023-01-28T06:23:02;6.10;;;3.60;;
13872;SDS011;7006;51.494;11.964;2023-01-28T06:25:30;5.70;;;4.33;;
13872;SDS011;7006;51.494;11.964;2023-01-28T06:27:58;8.40;;;4.97;;
13872;SDS011;7006;51.494;11.964;2023-01-28T06:30:27;5.03;;;3.13;;
13872;SDS011;7006;51.494;11.964;2023-01-28T06:32:55;6.27;;;3.40;;
13872;SDS011;7006;51.494;11.964;2023-01-28T06:35:23;5.20;;;3.30;;
13872;SDS011;7006;51.494;11.964;2023-01-28T06:37:54;6.83;;;3.57;;
13872;SDS011;7006;51.494;11.964;2023-01-28T06:40:22;5.63;;;3.67;;
13872;SDS011;7006;51.494;11.964;2023-01-28T06:42:50;4.87;;;3.80;;
13872;SDS011;7006;51.494;11.964;2023-01-28T06:45:18;5.70;;;3.63;;
13872;SDS011;7006;51.494;11.964;2023-01-28T06:47:47;5.30;;;3.23;;
13872;SDS011;7006;51.494;11.964;2023-01-28T06:50:15;6.80;;;3.30;;
13872;SDS011;7006;51.494;11.964;2023-01-28T06:52:43;6.17;;;3.60;;
13872;SDS011;7006;51.494;11.964;2023-01-28T06:55:14;6.60;;;3.57;;
13872;SDS011;7006;51.494;11.964;2023-01-28T06:57:42;7.30;;;3.30;;
13872;SDS011;7006;51.494;11.964;2023-01-28T07:00:11;5.83;;;3.03;;
13872;SDS011;7006;51.494;11.964;2023-01-28T07:02:40;5.33;;;3.13;;
13872;SDS011;7006;51.494;11.964;2023-01-28T07:05:09;6.67;;;2.90;;
13872;SDS011;7006;51.494;11.964;2023-01-28T07:07:37;7.27;;;3.37;;
13872;SDS011;7006;51.494;11.964;2023-01-28T07:10:06;4.93;;;2.83;;
13872;SDS011;7006;51.494;11.964;2023-01-28T07:12:37;6.60;;;3.50;;
13872;SDS011;7006;51.494;11.964;2023-01-28T07:15:09;5.47;;;3.57;;
13872;SDS011;7006;51.494;11.964;2023-01-28T07:17:39;5.50;;;3.27;;
13872;SDS011;7006;51.494;11.964;2023-01-28T07:20:08;7.70;;;4.30;;
13872;SDS011;7006;51.494;11.964;2023-01-28T07:22:37;8.40;;;4.73;;
13872;SDS011;7006;51.494;11.964;2023-01-28T07:25:07;9.87;;;4.67;;
13872;SDS011;7006;51.494;11.964;2023-01-28T07:27:38;8.17;;;3.93;;
13872;SDS011;7006;51.494;11.964;2023-01-28T07:30:07;7.17;;;5.03;;
13872;SDS011;7006;51.494;11.964;2023-01-28T07:32:36;9.43;;;5.17;;
13872;SDS011;7006;51.494;11.964;2023-01-28T07:35:04;7.00;;;4.70;;
13872;SDS011;7006;51.494;11.964;2023-01-28T07:37:33;7.40;;;4.60;;
13872;SDS011;7006;51.494;11.964;2023-01-28T07:40:01;7.03;;;4.67;;
13872;SDS011;7006;51.494;11.964;2023-01-28T07:42:29;5.70;;;4.30;;
13872;SDS011;7006;51.494;11.964;2023-01-28T07:45:00;5.47;;;3.73;;
13872;SDS011;7006;51.494;11.964;2023-01-28T07:47:29;8.23;;;4.97;;
13872;SDS011;7006;51.494;11.964;2023-01-28T07:49:58;7.37;;;3.90;;
13872;SDS011;7006;51.494;11.964;2023-01-28T07:52:26;9.50;;;4.80;;
13872;SDS011;7006;51.494;11.964;2023-01-28T07:54:57;10.50;;;5.10;;
13872;SDS011;7006;51.494;11.964;2023-01-28T07:57:25;9.50;;;5.40;;
13872;SDS011;7006;51.494;11.964;2023-01-28T07:59:54;8.10;;;5.40;;
13872;SDS011;7006;51.494;11.964;2023-01-28T08:02:25;5.10;;;3.43;;
13872;SDS011;7006;51.494;11.964;2023-01-28T08:04:54;7.67;;;4.60;;
13872;SDS011;7006;51.494;11.964;2023-01-28T08:07:23;10.00;;;5.03;;
13872;SDS011;7006;51.494;11.964;2023-01-28T08:09:51;10.13;;;5.60;;
13872;SDS011;7006;51.494;11.964;2023-01-28T08:12:19;6.90;;;4.67;;
13872;SDS011;7006;51.494;11.964;2023-01-28T08:14:48;7.43;;;4.67;;
13872;SDS011;7006;51.494;11.964;2023-01-28T08:17:16;6.83;;;4.50;;
13872;SDS011;7006;51.494;11.964;2023-01-28T08:19:47;6.87;;;4.70;;
13872;SDS011;7006;51.494;11.964;2023-01-28T08:22:15;12.33;;;5.53;;
13872;SDS011;7006;51.494;11.964;2023-01-28T08:24:43;9.37;;;5.70;;
13872;SDS011;7006;51.494;11.964;2023-01-28T08:27:11;7.60;;;4.97;;
13872;SDS011;7006;51.494;11.964;2023-01-28T08:29:40;8.43;;;5.20;;
13872;SDS011;7006;51.494;11.964;2023-01-28T08:32:09;7.07;;;5.23;;
13872;SDS011;7006;51.494;11.964;2023-01-28T08:34:38;7.00;;;5.17;;
13872;SDS011;7006;51.494;11.964;2023-01-28T08:37:08;6.80;;;5.07;;
13872;SDS011;7006;51.494;11.964;2023-01-28T08:39:37;8.20;;;5.80;;
13872;SDS011;7006;51.494;11.964;2023-01-28T08:42:05;7.00;;;5.40;;
13872;SDS011;7006;51.494;11.964;2023-01-28T08:44:33;6.80;;;4.87;;
13872;SDS011;7006;51.494;11.964;2023-01-28T08:47:04;8.57;;;5.70;;
13872;SDS011;7006;51.494;11.964;2023-01-28T08:49:32;11.87;;;6.50;;
13872;SDS011;7006;51.494;11.964;2023-01-28T08:52:01;8.23;;;5.90;;
13872;SDS011;7006;51.494;11.964;2023-01-28T08:54:31;7.20;;;5.13;;
13872;SDS011;7006;51.494;11.964;2023-01-28T08:57:00;8.93;;;6.93;;
13872;SDS011;7006;51.494;11.964;2023-01-28T08:59:28;8.13;;;6.20;;
13872;SDS011;7006;51.494;11.964;2023-01-28T09:01:57;15.10;;;11.67;;
13872;SDS011;7006;51.494;11.964;2023-01-28T09:04:25;13.93;;;11.30;;
13872;SDS011;7006;51.494;11.964;2023-01-28T09:06:53;10.60;;;7.93;;
13872;SDS011;7006;51.494;11.964;2023-01-28T09:09:21;10.50;;;6.23;;
13872;SDS011;7006;51.494;11.964;2023-01-28T09:11:52;9.10;;;6.37;;
13872;SDS011;7006;51.494;11.964;2023-01-28T09:14:20;10.63;;;6.83;;
13872;SDS011;7006;51.494;11.964;2023-01-28T09:16:49;7.87;;;6.47;;
13872;SDS011;7006;51.494;11.964;2023-01-28T09:19:17;9.60;;;6.80;;
13872;SDS011;7006;51.494;11.964;2023-01-28T09:21:45;10.40;;;6.90;;
13872;SDS011;7006;51.494;11.964;2023-01-28T09:24:13;10.73;;;6.03;;
13872;SDS011;7006;51.494;11.964;2023-01-28T09:26:47;11.20;;;7.73;;
13872;SDS011;7006;51.494;11.964;2023-01-28T09:29:20;9.57;;;6.77;;
13872;SDS011;7006;51.494;11.964;2023-01-28T09:31:51;8.93;;;6.10;;
13872;SDS011;7006;51.494;11.964;2023-01-28T09:34:19;10.13;;;6.60;;
13872;SDS011;7006;51.494;11.964;2023-01-28T09:36:48;10.03;;;6.10;;
13872;SDS011;7006;51.494;11.964;2023-01-28T09:39:16;8.07;;;5.80;;
13872;SDS011;7006;51.494;11.964;2023-01-28T09:41:46;6.87;;;5.73;;
13872;SDS011;7006;51.494;11.964;2023-01-28T09:44:27;6.60;;;4.93;;
13872;SDS011;7006;51.494;11.964;2023-01-28T09:47:00;6.87;;;5.33;;
13872;SDS011;7006;51.494;11.964;2023-01-28T09:49:32;9.90;;;5.87;;
13872;SDS011;7006;51.494;11.964;2023-01-28T09:52:02;7.73;;;6.07;;
13872;SDS011;7006;51.494;11.964;2023-01-28T09:54:33;6.93;;;5.30;;
13872;SDS011;7006;51.494;11.964;2023-01-28T09:57:04;8.30;;;5.60;;
13872;SDS011;7006;51.494;11.964;2023-01-28T09:59:39;46.33;;;23.17;;
13872;SDS011;7006;51.494;11.964;2023-01-28T10:02:26;28.63;;;15.10;;
13872;SDS011;7006;51.494;11.964;2023-01-28T10:05:04;11.53;;;8.53;;
13872;SDS011;7006;51.494;11.964;2023-01-28T10:07:41;16.27;;;9.43;;
13872;SDS011;7006;51.494;11.964;2023-01-28T10:10:12;15.33;;;11.07;;
13872;SDS011;7006;51.494;11.964;2023-01-28T10:12:47;9.40;;;7.90;;
13872;SDS011;7006;51.494;11.964;2023-01-28T10:18:06;10.33;;;7.17;;
13872;SDS011;7006;51.494;11.964;2023-01-28T10:20:36;10.33;;;6.13;;
13872;SDS011;7006;51.494;11.964;2023-01-28T10:23:06;9.30;;;6.60;;
13872;SDS011;7006;51.494;11.964;2023-01-28T10:25:40;6.17;;;4.80;;
13872;SDS011;7006;51.494;11.964;2023-01-28T10:28:19;5.57;;;4.10;;
13872;SDS011;7006;51.494;11.964;2023-01-28T10:30:50;10.90;;;4.93;;
13872;SDS011;7006;51.494;11.964;2023-01-28T10:33:23;9.40;;;5.73;;
13872;SDS011;7006;51.494;11.964;2023-01-28T10:35:56;8.07;;;5.63;;
13872;SDS011;7006;51.494;11.964;2023-01-28T10:38:25;8.27;;;5.53;;
13872;SDS011;7006;51.494;11.964;2023-01-28T10:40:56;6.27;;;4.90;;
13872;SDS011;7006;51.494;11.964;2023-01-28T10:43:25;6.67;;;5.60;;
13872;SDS011;7006;51.494;11.964;2023-01-28T10:46:00;12.80;;;8.97;;
13872;SDS011;7006;51.494;11.964;2023-01-28T10:48:37;27.73;;;10.17;;
13872;SDS011;7006;51.494;11.964;2023-01-28T10:51:07;9.47;;;8.43;;
13872;SDS011;7006;51.494;11.964;2023-01-28T10:53:39;5.77;;;4.53;;
13872;SDS011;7006;51.494;11.964;2023-01-28T10:56:08;5.03;;;4.53;;
13872;SDS011;7006;51.494;11.964;2023-01-28T10:58:46;7.13;;;5.40;;
13872;SDS011;7006;51.494;11.964;2023-01-28T11:01:15;10.67;;;7.00;;
13872;SDS011;7006;51.494;11.964;2023-01-28T11:03:53;9.07;;;6.30;;
13872;SDS011;7006;51.494;11.964;2023-01-28T11:06:28;6.97;;;6.10;;
13872;SDS011;7006;51.494;11.964;2023-01-28T11:08:56;8.10;;;6.70;;
13872;SDS011;7006;51.494;11.964;2023-01-28T11:11:24;8.27;;;5.00;;
13872;SDS011;7006;51.494;11.964;2023-01-28T11:13:55;9.20;;;4.43;;
13872;SDS011;7006;51.494;11.964;2023-01-28T11:16:25;10.33;;;5.37;;
13872;SDS011;7006;51.494;11.964;2023-01-28T11:19:03;9.90;;;6.60;;
13872;SDS011;7006;51.494;11.964;2023-01-28T11:21:32;12.60;;;7.20;;
13872;SDS011;7006;51.494;11.964;2023-01-28T11:24:02;9.00;;;6.90;;
13872;SDS011;7006;51.494;11.964;2023-01-28T11:26:33;10.17;;;7.37;;
13872;SDS011;7006;51.494;11.964;2023-01-28T11:29:02;10.30;;;7.07;;
13872;SDS011;7006;51.494;11.964;2023-01-28T11:31:41;15.40;;;9.10;;
13872;SDS011;7006;51.494;11.964;2023-01-28T11:34:13;9.70;;;6.83;;
13872;SDS011;7006;51.494;11.964;2023-01-28T11:36:48;11.57;;;7.23;;
13872;SDS011;7006;51.494;11.964;2023-01-28T11:39:18;14.10;;;10.03;;
13872;SDS011;7006;51.494;11.964;2023-01-28T11:41:48;9.80;;;7.43;;
13872;SDS011;7006;51.494;11.964;2023-01-28T11:44:18;10.87;;;7.80;;
13872;SDS011;7006;51.494;11.964;2023-01-28T11:46:53;12.67;;;7.30;;
13872;SDS011;7006;51.494;11.964;2023-01-28T11:49:30;11.90;;;7.53;;
13872;SDS011;7006;51.494;11.964;2023-01-28T11:52:05;9.97;;;6.47;;
13872;SDS011;7006;51.494;11.964;2023-01-28T11:54:40;9.37;;;6.40;;
13872;SDS011;7006;51.494;11.964;2023-01-28T11:57:15;10.03;;;6.40;;
13872;SDS011;7006;51.494;11.964;2023-01-28T11:59:58;9.93;;;6.50;;
13872;SDS011;7006;51.494;11.964;2023-01-28T12:02:41;12.00;;;6.90;;
13872;SDS011;7006;51.494;11.964;2023-01-28T12:05:18;14.17;;;9.50;;
13872;SDS011;7006;51.494;11.964;2023-01-28T12:07:48;12.57;;;8.73;;
13872;SDS011;7006;51.494;11.964;2023-01-28T12:10:19;27.57;;;15.00;;
13872;SDS011;7006;51.494;11.964;2023-01-28T12:12:53;21.43;;;12.43;;
13872;SDS011;7006;51.494;11.964;2023-01-28T12:15:41;18.83;;;9.43;;
13872;SDS011;7006;51.494;11.964;2023-01-28T12:18:24;12.93;;;6.87;;
13872;SDS011;7006;51.494;11.964;2023-01-28T12:20:59;7.73;;;6.60;;
13872;SDS011;7006;51.494;11.964;2023-01-28T12:23:34;9.20;;;6.63;;
13872;SDS011;7006;51.494;11.964;2023-01-28T12:26:05;9.13;;;6.00;;
13872;SDS011;7006;51.494;11.964;2023-01-28T12:28:45;12.60;;;7.70;;
13872;SDS011;7006;51.494;11.964;2023-01-28T12:31:26;9.40;;;5.83;;
13872;SDS011;7006;51.494;11.964;2023-01-28T12:34:12;9.50;;;6.40;;
13872;SDS011;7006;51.494;11.964;2023-01-28T12:36:52;9.07;;;6.47;;
13872;SDS011;7006;51.494;11.964;2023-01-28T12:39:27;10.17;;;6.30;;
13872;SDS011;7006;51.494;11.964;2023-01-28T12:42:00;8.57;;;6.50;;
13872;SDS011;7006;51.494;11.964;2023-01-28T12:44:35;17.00;;;11.07;;
13872;SDS011;7006;51.494;11.964;2023-01-28T12:47:09;10.87;;;7.70;;
13872;SDS011;7006;51.494;11.964;2023-01-28T12:49:41;10.30;;;7.97;;
13872;SDS011;7006;51.494;11.964;2023-01-28T12:52:14;13.23;;;7.90;;
13872;SDS011;7006;51.494;11.964;2023-01-28T12:54:47;13.60;;;9.03;;
13872;SDS011;7006;51.494;11.964;2023-01-28T12:57:22;14.70;;;8.97;;
13872;SDS011;7006;51.494;11.964;2023-01-28T12:59:50;15.00;;;9.00;;
13872;SDS011;7006;51.494;11.964;2023-01-28T13:02:22;13.00;;;8.77;;
13872;SDS011;7006;51.494;11.964;2023-01-28T13:04:53;16.83;;;8.70;;
13872;SDS011;7006;51.494;11.964;2023-01-28T13:07:27;11.90;;;8.53;;
13872;SDS011;7006;51.494;11.964;2023-01-28T13:10:02;11.17;;;8.27;;
13872;SDS011;7006;51.494;11.964;2023-01-28T13:12:33;10.37;;;7.20;;
13872;SDS011;7006;51.494;11.964;2023-01-28T13:15:04;10.80;;;7.80;;
13872;SDS011;7006;51.494;11.964;2023-01-28T13:17:35;18.50;;;10.60;;
13872;SDS011;7006;51.494;11.964;2023-01-28T13:20:14;18.47;;;11.53;;
13872;SDS011;7006;51.494;11.964;2023-01-28T13:22:45;10.10;;;7.33;;
13872;SDS011;7006;51.494;11.964;2023-01-28T13:25:20;13.50;;;8.23;;
13872;SDS011;7006;51.494;11.964;2023-01-28T13:27:56;13.97;;;9.27;;
13872;SDS011;7006;51.494;11.964;2023-01-28T13:30:26;10.77;;;7.70;;
13872;SDS011;7006;51.494;11.964;2023-01-28T13:32:55;12.67;;;8.47;;
13872;SDS011;7006;51.494;11.964;2023-01-28T13:35:27;10.67;;;7.40;;
13872;SDS011;7006;51.494;11.964;2023-01-28T13:37:59;13.00;;;8.20;;
13872;SDS011;7006;51.494;11.964;2023-01-28T13:40:37;8.30;;;5.80;;
13872;SDS011;7006;51.494;11.964;2023-01-28T13:45:57;10.10;;;6.33;;
13872;SDS011;7006;51.494;11.964;2023-01-28T13:48:28;7.23;;;5.50;;
13872;SDS011;7006;51.494;11.964;2023-01-28T13:50:58;6.93;;;4.87;;
13872;SDS011;7006;51.494;11.964;2023-01-28T13:53:34;8.23;;;5.97;;
13872;SDS011;7006;51.494;11.964;2023-01-28T13:56:08;7.70;;;4.80;;
13872;SDS011;7006;51.494;11.964;2023-01-28T13:58:52;5.70;;;4.20;;
13872;SDS011;7006;51.494;11.964;2023-01-28T14:01:39;5.50;;;3.60;;
13872;SDS011;7006;51.494;11.964;2023-01-28T14:04:27;3.97;;;2.93;;
13872;SDS011;7006;51.494;11.964;2023-01-28T14:07:03;4.17;;;3.00;;
13872;SDS011;7006;51.494;11.964;2023-01-28T14:12:32;7.40;;;4.40;;
13872;SDS011;7006;51.494;11.964;2023-01-28T14:15:26;5.70;;;3.90;;
13872;SDS011;7006;51.494;11.964;2023-01-28T14:18:02;6.00;;;3.37;;
13872;SDS011;7006;51.494;11.964;2023-01-28T14:20:37;3.40;;;3.00;;
13872;SDS011;7006;51.494;11.964;2023-01-28T14:23:13;5.33;;;3.57;;
13872;SDS011;7006;51.494;11.964;2023-01-28T14:25:47;5.77;;;3.43;;
13872;SDS011;7006;51.494;11.964;2023-01-28T14:28:22;4.80;;;2.90;;
13872;SDS011;7006;51.494;11.964;2023-01-28T14:30:56;3.67;;;2.53;;
13872;SDS011;7006;51.494;11.964;2023-01-28T14:33:26;5.33;;;2.87;;
13872;SDS011;7006;51.494;11.964;2023-01-28T14:35:54;3.73;;;2.87;;
13872;SDS011;7006;51.494;11.964;2023-01-28T14:38:23;2.90;;;1.97;;
13872;SDS011;7006;51.494;11.964;2023-01-28T14:40:52;2.60;;;1.97;;
13872;SDS011;7006;51.494;11.964;2023-01-28T14:43:24;2.43;;;1.77;;
13872;SDS011;7006;51.494;11.964;2023-01-28T14:45:57;3.10;;;2.37;;
13872;SDS011;7006;51.494;11.964;2023-01-28T14:48:30;2.27;;;1.57;;
13872;SDS011;7006;51.494;11.964;2023-01-28T14:53:52;7.13;;;3.37;;
13872;SDS011;7006;51.494;11.964;2023-01-28T14:56:26;7.27;;;5.40;;
13872;SDS011;7006;51.494;11.964;2023-01-28T14:58:58;3.67;;;2.50;;
13872;SDS011;7006;51.494;11.964;2023-01-28T15:01:29;8.53;;;2.20;;
13872;SDS011;7006;51.494;11.964;2023-01-28T15:03:57;3.87;;;2.13;;
13872;SDS011;7006;51.494;11.964;2023-01-28T15:06:28;2.33;;;1.70;;
13872;SDS011;7006;51.494;11.964;2023-01-28T15:09:04;3.20;;;2.03;;
13872;SDS011;7006;51.494;11.964;2023-01-28T15:11:34;3.40;;;2.10;;
13872;SDS011;7006;51.494;11.964;2023-01-28T15:14:08;4.20;;;2.93;;
13872;SDS011;7006;51.494;11.964;2023-01-28T15:16:39;3.23;;;2.10;;
13872;SDS011;7006;51.494;11.964;2023-01-28T15:19:09;3.00;;;2.27;;
13872;SDS011;7006;51.494;11.964;2023-01-28T15:21:38;7.30;;;4.70;;
13872;SDS011;7006;51.494;11.964;2023-01-28T15:24:08;11.37;;;5.33;;